createdAt,value
2018-03-16T00:00:28.422Z,99321.59
2018-03-16T00:02:59.896Z,99317.06
2018-03-16T00:05:31.254Z,99323.30
2018-03-16T00:08:02.563Z,99324.00
2018-03-16T00:10:34.222Z,99325.22
2018-03-16T00:13:05.603Z,99327.25
2018-03-16T00:15:37.023Z,99328.83
2018-03-16T00:18:08.983Z,99328.86
2018-03-16T00:20:46.004Z,99329.87
2018-03-16T00:23:17.905Z,99332.13
2018-03-16T00:25:49.189Z,99341.95
2018-03-16T00:28:26.961Z,99339.97
2018-03-16T00:30:58.292Z,99341.12
2018-03-16T00:33:30.073Z,99337.78
2018-03-16T00:36:01.688Z,99339.97
2018-03-16T00:38:33.461Z,99341.45
2018-03-16T00:41:04.782Z,99343.73
2018-03-16T00:43:35.976Z,99346.14
2018-03-16T00:46:07.508Z,99354.27
2018-03-16T00:48:38.775Z,99358.19
2018-03-16T00:51:10.335Z,99351.45
2018-03-16T00:53:46.680Z,99356.38
2018-03-16T00:56:18.038Z,99363.58
2018-03-16T00:58:49.518Z,99352.25
2018-03-16T01:01:22.502Z,99353.45
2018-03-16T01:03:55.264Z,99356.42
2018-03-16T01:06:26.869Z,99350.03
2018-03-16T01:08:59.028Z,99348.06
2018-03-16T01:11:31.940Z,99343.06
2018-03-16T01:14:03.365Z,99338.25
2018-03-16T01:16:35.206Z,99342.74
2018-03-16T01:19:06.573Z,99331.68
2018-03-16T01:21:38.185Z,99344.89
2018-03-16T01:24:10.022Z,99339.91
2018-03-16T01:26:41.554Z,99342.83
2018-03-16T01:29:13.027Z,99344.30
2018-03-16T01:31:45.682Z,99339.05
2018-03-16T01:34:18.045Z,99334.41
2018-03-16T01:36:49.605Z,99335.06
2018-03-16T01:39:23.137Z,99344.64
2018-03-16T01:41:54.555Z,99341.00
2018-03-16T01:44:26.538Z,99334.34
2018-03-16T01:46:59.343Z,99343.48
2018-03-16T01:49:30.713Z,99336.37
2018-03-16T01:52:02.197Z,99331.89
2018-03-16T01:54:33.843Z,99333.64
2018-03-16T01:57:05.894Z,99330.51
2018-03-16T01:59:38.692Z,99333.77
2018-03-16T02:02:11.084Z,99332.73
2018-03-16T02:04:42.635Z,99317.65
2018-03-16T02:07:14.036Z,99339.73
2018-03-16T02:09:45.978Z,99333.61
2018-03-16T02:12:17.902Z,99335.84
2018-03-16T02:14:49.406Z,99333.52
2018-03-16T02:17:21.077Z,99339.50
2018-03-16T02:19:58.515Z,99343.33
2018-03-16T02:22:29.854Z,99349.05
2018-03-16T02:25:01.476Z,99342.92
2018-03-16T02:27:32.970Z,99349.05
2018-03-16T02:30:06.384Z,99344.57
2018-03-16T02:32:38.265Z,99349.55
2018-03-16T02:35:09.870Z,99345.89
2018-03-16T02:37:41.117Z,99348.99
2018-03-16T02:40:13.348Z,99346.16
2018-03-16T02:42:44.815Z,99352.28
2018-03-16T02:45:18.243Z,99347.73
2018-03-16T02:47:49.516Z,99353.03
2018-03-16T02:50:22.788Z,99356.05
2018-03-16T02:52:53.874Z,99355.13
2018-03-16T02:55:26.232Z,99354.79
2018-03-16T02:57:57.350Z,99349.72
2018-03-16T03:00:29.656Z,99360.09
2018-03-16T03:03:00.765Z,99360.19
2018-03-16T03:05:32.028Z,99364.50
2018-03-16T03:08:03.270Z,99372.50
2018-03-16T03:10:34.308Z,99373.65
2018-03-16T03:13:04.908Z,99379.04
2018-03-16T03:15:35.842Z,99379.70
2018-03-16T03:18:06.846Z,99379.71
2018-03-16T03:20:37.881Z,99381.71
2018-03-16T03:23:08.608Z,99377.98
2018-03-16T03:25:39.892Z,99379.72
2018-03-16T03:28:10.772Z,99382.20
2018-03-16T03:30:42.447Z,99377.66
2018-03-16T03:33:14.486Z,99386.87
2018-03-16T03:35:46.314Z,99380.54
2018-03-16T03:38:18.054Z,99382.64
2018-03-16T03:40:48.978Z,99376.33
2018-03-16T03:43:21.421Z,99387.30
2018-03-16T03:45:52.963Z,99388.45
2018-03-16T03:48:26.366Z,99393.03
2018-03-16T03:50:57.451Z,99402.32
2018-03-16T03:53:28.677Z,99399.18
2018-03-16T03:55:59.620Z,99400.25
2018-03-16T03:58:33.728Z,99403.23
2018-03-16T04:01:05.703Z,99405.00
2018-03-16T04:03:37.192Z,99407.37
2018-03-16T04:06:08.421Z,99405.14
2018-03-16T04:08:41.518Z,99407.23
2018-03-16T04:11:13.147Z,99415.80
2018-03-16T04:13:44.486Z,99415.28
2018-03-16T04:16:15.725Z,99419.87
2018-03-16T04:18:46.980Z,99422.34
2018-03-16T04:21:18.515Z,99413.55
2018-03-16T04:23:49.686Z,99413.22
2018-03-16T04:26:20.301Z,99406.91
2018-03-16T04:28:51.413Z,99407.97
2018-03-16T04:31:22.234Z,99415.28
2018-03-16T04:33:52.729Z,99419.19
2018-03-16T04:36:23.761Z,99423.09
2018-03-16T04:38:54.235Z,99419.36
2018-03-16T04:41:25.935Z,99419.63
2018-03-16T04:43:58.622Z,99427.27
2018-03-16T04:46:29.834Z,99429.66
2018-03-16T04:49:00.639Z,99426.20
2018-03-16T04:51:31.931Z,99435.58
2018-03-16T04:54:02.872Z,99429.01
2018-03-16T04:56:48.553Z,99446.73
2018-03-16T04:59:19.487Z,99445.16
2018-03-16T05:01:50.975Z,99456.04
2018-03-16T05:04:22.495Z,99454.60
2018-03-16T05:06:53.843Z,99459.69
2018-03-16T05:09:30.872Z,99460.62
2018-03-16T05:12:02.106Z,99454.97
2018-03-16T05:14:33.355Z,99461.17
2018-03-16T05:17:06.107Z,99450.22
2018-03-16T05:19:37.999Z,99461.36
2018-03-16T05:22:08.916Z,99463.52
2018-03-16T05:24:41.475Z,99465.08
2018-03-16T05:27:13.068Z,99470.73
2018-03-16T05:29:44.506Z,99467.74
2018-03-16T05:32:16.020Z,99470.25
2018-03-16T05:34:47.350Z,99477.80
2018-03-16T05:37:19.256Z,99451.30
2018-03-16T05:39:50.337Z,99474.50
2018-03-16T05:44:50.883Z,99466.16
2018-03-16T05:47:22.652Z,99470.07
2018-03-16T05:49:54.298Z,99478.30
2018-03-16T05:52:25.353Z,99483.55
2018-03-16T05:54:56.661Z,99487.12
2018-03-16T05:57:29.031Z,99491.44
2018-03-16T06:00:00.390Z,99493.78
2018-03-16T06:02:35.516Z,99497.78
2018-03-16T06:05:09.743Z,99497.34
2018-03-16T06:07:41.171Z,99500.42
2018-03-16T06:10:12.430Z,99500.61
2018-03-16T06:12:45.139Z,99497.84
2018-03-16T06:15:18.058Z,99505.73
2018-03-16T06:17:49.988Z,99503.05
2018-03-16T06:20:21.756Z,99507.56
2018-03-16T06:22:53.224Z,99517.41
2018-03-16T06:25:26.430Z,99509.15
2018-03-16T06:27:57.764Z,99511.89
2018-03-16T06:30:29.964Z,99517.72
2018-03-16T06:33:01.392Z,99513.06
2018-03-16T06:35:33.680Z,99515.90
2018-03-16T06:38:05.091Z,99518.88
2018-03-16T06:40:36.417Z,99506.90
2018-03-16T06:43:08.587Z,99524.20
2018-03-16T06:45:45.900Z,99533.30
2018-03-16T06:48:17.234Z,99535.37
2018-03-16T06:50:49.269Z,99520.64
2018-03-16T06:53:21.730Z,99526.72
2018-03-16T06:56:03.926Z,99527.80
2018-03-16T06:58:39.569Z,99534.03
2018-03-16T07:01:11.976Z,99540.45
2018-03-16T07:03:43.114Z,99525.23
2018-03-16T07:06:15.008Z,99538.13
2018-03-16T07:08:46.287Z,99535.95
2018-03-16T07:11:26.996Z,99539.36
2018-03-16T07:14:00.679Z,99536.73
2018-03-16T07:16:33.155Z,99548.31
2018-03-16T07:19:04.600Z,99549.86
2018-03-16T07:21:35.911Z,99550.34
2018-03-16T07:24:07.397Z,99553.55
2018-03-16T07:26:40.599Z,99558.05
2018-03-16T07:29:12.130Z,99555.41
2018-03-16T07:31:50.426Z,99565.03
2018-03-16T07:34:22.407Z,99566.39
2018-03-16T07:36:54.915Z,99570.28
2018-03-16T07:39:26.245Z,99573.30
2018-03-16T07:41:58.864Z,99581.19
2018-03-16T07:44:31.062Z,99583.17
2018-03-16T07:47:03.036Z,99578.45
2018-03-16T07:49:35.347Z,99584.07
2018-03-16T07:52:09.016Z,99585.61
2018-03-16T07:54:40.970Z,99581.55
2018-03-16T07:57:12.225Z,99580.73
2018-03-16T07:59:43.913Z,99582.55
2018-03-16T08:02:20.074Z,99580.10
2018-03-16T08:04:51.783Z,99593.62
2018-03-16T08:07:27.078Z,99596.12
2018-03-16T08:09:58.487Z,99593.22
2018-03-16T08:12:31.829Z,99585.74
2018-03-16T08:15:06.400Z,99602.24
2018-03-16T08:17:38.749Z,99602.98
2018-03-16T08:22:54.522Z,99609.38
2018-03-16T08:25:31.043Z,99619.69
2018-03-16T08:28:05.359Z,99622.01
2018-03-16T08:30:37.992Z,99617.82
2018-03-16T08:33:10.153Z,99620.27
2018-03-16T08:35:41.942Z,99623.45
2018-03-16T08:38:12.984Z,99627.25
2018-03-16T08:40:45.081Z,99624.18
2018-03-16T08:43:16.399Z,99625.44
2018-03-16T08:45:49.289Z,99625.78
2018-03-16T08:48:20.845Z,99635.42
2018-03-16T08:50:53.070Z,99631.78
2018-03-16T08:53:26.833Z,99630.95
2018-03-16T08:55:57.875Z,99631.09
2018-03-16T08:58:36.085Z,99634.66
2018-03-16T09:01:09.906Z,99630.98
2018-03-16T09:03:41.360Z,99635.46
2018-03-16T09:06:16.645Z,99634.33
2018-03-16T09:08:48.024Z,99615.41
2018-03-16T09:11:19.452Z,99638.44
2018-03-16T09:13:50.713Z,99633.69
2018-03-16T09:16:22.825Z,99638.84
2018-03-16T09:18:56.735Z,99642.39
2018-03-16T09:21:27.924Z,99642.48
2018-03-16T09:24:01.178Z,99636.83
2018-03-16T09:26:33.467Z,99649.04
2018-03-16T09:29:04.987Z,99647.85
2018-03-16T09:31:36.723Z,99652.30
2018-03-16T09:34:10.083Z,99653.15
2018-03-16T09:36:42.643Z,99656.23
2018-03-16T09:39:15.639Z,99654.75
2018-03-16T09:41:48.847Z,99658.31
2018-03-16T09:44:20.317Z,99654.47
2018-03-16T09:46:54.673Z,99650.67
2018-03-16T09:49:30.824Z,99656.36
2018-03-16T09:52:02.746Z,99657.81
2018-03-16T09:54:40.421Z,99660.19
2018-03-16T09:57:12.051Z,99660.44
2018-03-16T09:59:43.058Z,99663.72
2018-03-16T10:02:14.316Z,99670.77
2018-03-16T10:04:46.110Z,99668.91
2018-03-16T10:07:17.712Z,99639.65
2018-03-16T10:10:11.386Z,99664.91
2018-03-16T10:12:42.600Z,99676.13
2018-03-16T10:15:20.047Z,99674.64
2018-03-16T10:17:53.070Z,99673.90
2018-03-16T10:20:24.014Z,99673.17
2018-03-16T10:22:55.030Z,99670.16
2018-03-16T10:25:25.871Z,99678.22
2018-03-16T10:27:57.521Z,99682.46
2018-03-16T10:30:29.074Z,99678.84
2018-03-16T10:33:01.344Z,99680.91
2018-03-16T10:35:36.970Z,99681.56
2018-03-16T10:38:08.835Z,99691.39
2018-03-16T10:40:40.967Z,99676.55
2018-03-16T10:43:12.917Z,99698.75
2018-03-16T10:45:46.658Z,99698.26
2018-03-16T10:48:18.161Z,99702.05
2018-03-16T10:50:48.953Z,99697.75
2018-03-16T10:53:22.182Z,99698.85
2018-03-16T10:55:54.413Z,99713.77
2018-03-16T10:58:27.185Z,99706.98
2018-03-16T11:01:00.551Z,99699.73
2018-03-16T11:03:35.679Z,99713.98
2018-03-16T11:06:08.119Z,99711.14
2018-03-16T11:08:41.390Z,99718.48
2018-03-16T11:11:13.037Z,99719.69
2018-03-16T11:13:48.092Z,99723.28
2018-03-16T11:16:23.640Z,99730.72
2018-03-16T11:18:56.433Z,99731.60
2018-03-16T11:21:28.509Z,99738.84
2018-03-16T11:24:11.875Z,99731.20
2018-03-16T11:26:43.938Z,99735.73
2018-03-16T11:29:16.356Z,99738.84
2018-03-16T11:31:47.845Z,99736.38
2018-03-16T11:34:20.903Z,99740.35
2018-03-16T11:36:52.395Z,99743.80
2018-03-16T11:39:27.732Z,99736.14
2018-03-16T11:41:59.780Z,99727.61
2018-03-16T11:44:31.358Z,99744.98
2018-03-16T11:47:03.407Z,99756.53
2018-03-16T11:49:34.924Z,99751.83
2018-03-16T11:52:06.246Z,99769.76
2018-03-16T11:54:37.494Z,99761.97
2018-03-16T11:57:09.079Z,99766.91
2018-03-16T11:59:39.886Z,99768.22
2018-03-16T12:02:11.527Z,99777.09
2018-03-16T12:04:44.031Z,99781.20
2018-03-16T12:07:15.350Z,99778.79
2018-03-16T12:09:47.533Z,99780.78
2018-03-16T12:12:24.877Z,99777.63
2018-03-16T12:14:58.797Z,99776.84
2018-03-16T12:17:30.851Z,99776.92
2018-03-16T12:20:04.432Z,99783.22
2018-03-16T12:22:36.655Z,99777.28
2018-03-16T12:25:08.429Z,99777.80
2018-03-16T12:27:41.392Z,99778.96
2018-03-16T12:30:17.774Z,99773.89
2018-03-16T12:32:49.774Z,99783.39
2018-03-16T12:35:21.422Z,99782.95
2018-03-16T12:37:52.527Z,99782.97
2018-03-16T12:40:30.045Z,99791.92
2018-03-16T12:43:02.150Z,99788.17
2018-03-16T12:45:34.348Z,99790.84
2018-03-16T12:48:15.491Z,99786.17
2018-03-16T12:50:47.900Z,99787.88
2018-03-16T12:53:20.633Z,99788.58
2018-03-16T12:55:51.886Z,99790.99
2018-03-16T12:58:26.613Z,99787.19
2018-03-16T13:01:00.225Z,99789.31
2018-03-16T13:03:31.382Z,99750.75
2018-03-16T13:06:06.388Z,99787.70
2018-03-16T13:08:37.703Z,99785.64
2018-03-16T13:11:08.791Z,99788.83
2018-03-16T13:13:40.436Z,99791.20
2018-03-16T13:16:19.802Z,99790.75
2018-03-16T13:18:53.224Z,99794.66
2018-03-16T13:21:28.490Z,99794.20
2018-03-16T13:26:35.429Z,99799.37
2018-03-16T13:29:17.078Z,99804.93
2018-03-16T13:31:48.904Z,99807.20
2018-03-16T13:34:21.558Z,99801.27
2018-03-16T13:36:53.760Z,99802.59
2018-03-16T13:39:26.836Z,99813.80
2018-03-16T13:41:58.531Z,99803.91
2018-03-16T13:44:41.341Z,99805.09
2018-03-16T13:47:15.202Z,99809.67
2018-03-16T13:49:46.859Z,99816.63
2018-03-16T13:52:26.399Z,99813.84
2018-03-16T13:54:57.810Z,99820.45
2018-03-16T13:57:29.699Z,99817.47
2018-03-16T14:00:00.675Z,99818.09
2018-03-16T14:02:37.602Z,99810.94
2018-03-16T14:05:10.335Z,99803.09
2018-03-16T14:07:41.705Z,99826.55
2018-03-16T14:10:13.684Z,99825.05
2018-03-16T14:12:46.648Z,99819.70
2018-03-16T14:15:25.097Z,99818.95
2018-03-16T14:18:00.056Z,99813.19
2018-03-16T14:20:31.165Z,99820.73
2018-03-16T14:23:02.826Z,99821.29
2018-03-16T14:25:36.187Z,99838.09
2018-03-16T14:28:07.113Z,99835.04
2018-03-16T14:30:38.672Z,99829.89
2018-03-16T14:33:21.261Z,99830.28
2018-03-16T14:35:58.403Z,99835.30
2018-03-16T14:48:26.125Z,99835.64
2018-03-16T14:50:57.673Z,99847.58
2018-03-16T14:53:39.920Z,99837.36
2018-03-16T14:56:14.736Z,99851.20
2018-03-16T14:58:46.440Z,99851.70
2018-03-16T15:01:22.250Z,99859.08
2018-03-16T15:03:59.014Z,99860.12
2018-03-16T15:06:41.089Z,99867.73
2018-03-16T15:13:09.989Z,99875.11
2018-03-16T15:15:43.305Z,99873.05
2018-03-16T15:18:21.548Z,99867.53
2018-03-16T15:20:59.368Z,99868.92
2018-03-16T15:23:34.662Z,99865.92
2018-03-16T15:26:08.790Z,99867.06
2018-03-16T15:28:46.387Z,99865.19
2018-03-16T15:31:20.046Z,99866.58
2018-03-16T15:33:56.324Z,99860.80
2018-03-16T15:36:34.471Z,99840.31
2018-03-16T15:39:06.631Z,99865.89
2018-03-16T15:41:44.110Z,99867.77
2018-03-16T15:44:15.684Z,99868.38
2018-03-16T15:46:48.928Z,99869.77
2018-03-16T15:52:18.736Z,99875.69
2018-03-16T15:54:53.107Z,99877.44
2018-03-16T15:57:31.320Z,99875.36
2018-03-16T16:00:05.884Z,99878.37
2018-03-16T16:02:38.643Z,99856.03
2018-03-16T16:05:10.622Z,99878.45
2018-03-16T16:07:41.775Z,99881.95
2018-03-16T16:10:13.820Z,99887.77
2018-03-16T16:12:45.394Z,99888.93
2018-03-16T16:15:19.110Z,99899.36
2018-03-16T16:17:50.304Z,99894.76
2018-03-16T16:20:21.878Z,99898.77
2018-03-16T16:22:54.615Z,99899.76
2018-03-16T16:25:26.858Z,99903.66
2018-03-16T16:27:59.985Z,99899.84
2018-03-16T16:30:34.357Z,99903.12
2018-03-16T16:33:06.093Z,99904.67
2018-03-16T16:35:38.335Z,99892.14
2018-03-16T16:38:09.505Z,99915.23
2018-03-16T16:40:41.307Z,99912.77
2018-03-16T16:43:12.218Z,99905.38
2018-03-16T16:45:49.889Z,99913.52
2018-03-16T16:48:22.716Z,99917.09
2018-03-16T16:50:56.507Z,99909.94
2018-03-16T16:53:28.482Z,99921.95
2018-03-16T16:56:05.803Z,99919.70
2018-03-16T16:58:39.630Z,99925.41
2018-03-16T17:01:14.443Z,99919.39
2018-03-16T17:06:32.795Z,99947.25
2018-03-16T17:09:04.215Z,99948.63
2018-03-16T17:11:38.211Z,99957.09
2018-03-16T17:14:15.326Z,99953.42
2018-03-16T17:16:46.881Z,99964.77
2018-03-16T17:19:25.004Z,99968.51
2018-03-16T17:22:04.690Z,99977.06
2018-03-16T17:24:37.784Z,99974.84
2018-03-16T17:27:12.104Z,99973.59
2018-03-16T17:32:31.063Z,99976.47
2018-03-16T17:35:10.124Z,99984.66
2018-03-16T17:37:43.003Z,99984.06
2018-03-16T17:40:18.048Z,99984.69
2018-03-16T17:48:28.668Z,99979.24
2018-03-16T17:51:00.816Z,99995.83
2018-03-16T17:53:34.397Z,99989.31
2018-03-16T17:56:07.734Z,99991.46
2018-03-16T17:58:40.948Z,99994.84
2018-03-16T18:01:14.505Z,99985.30
2018-03-16T18:03:46.131Z,99989.26
2018-03-16T18:06:21.413Z,100000.55
2018-03-16T18:08:54.322Z,100004.51
2018-03-16T18:11:29.723Z,99992.16
2018-03-16T18:14:01.255Z,100006.36
2018-03-16T18:16:32.809Z,100006.95
2018-03-16T18:19:05.712Z,100013.69
2018-03-16T18:21:37.046Z,100014.28
2018-03-16T18:24:09.059Z,100022.09
2018-03-16T18:26:43.032Z,100018.30
2018-03-16T18:31:53.405Z,100020.73
2018-03-16T18:34:36.020Z,100032.02
2018-03-16T18:37:13.624Z,100037.05
2018-03-16T18:39:47.482Z,100032.49
2018-03-16T18:42:20.391Z,100045.47
2018-03-16T18:44:53.969Z,100046.74
2018-03-16T18:47:38.777Z,100043.31
2018-03-16T18:50:11.667Z,100052.50
2018-03-16T18:52:44.637Z,100048.95
2018-03-16T18:55:16.441Z,100037.22
2018-03-16T18:57:47.810Z,100046.20
2018-03-16T19:00:21.127Z,100053.07
2018-03-16T19:02:52.169Z,100058.00
2018-03-16T19:05:24.145Z,100054.37
2018-03-16T19:07:56.973Z,100051.52
2018-03-16T19:10:29.228Z,100057.02
2018-03-16T19:13:02.781Z,100053.20
2018-03-16T19:15:33.887Z,100067.28
2018-03-16T19:18:05.803Z,100058.98
2018-03-16T19:20:36.986Z,100076.77
2018-03-16T19:23:09.707Z,100074.80
2018-03-16T19:25:40.479Z,100082.10
2018-03-16T19:28:12.446Z,100082.72
2018-03-16T19:30:44.720Z,100083.20
2018-03-16T19:36:19.740Z,100092.77
2018-03-16T19:38:51.767Z,100092.62
2018-03-16T19:41:23.017Z,100103.23
2018-03-16T19:43:54.296Z,100100.34
2018-03-16T19:46:25.956Z,100091.80
2018-03-16T19:48:58.442Z,100086.03
2018-03-16T19:51:29.855Z,100103.97
2018-03-16T19:54:00.819Z,100106.44
2018-03-16T19:56:31.533Z,100106.17
2018-03-16T19:59:05.913Z,100105.52
2018-03-16T20:01:37.618Z,100106.38
2018-03-16T20:04:09.652Z,100107.93
2018-03-16T20:06:40.502Z,100096.69
2018-03-16T20:09:11.760Z,100123.20
2018-03-16T20:11:42.695Z,100120.33
2018-03-16T20:14:13.888Z,100107.25
2018-03-16T20:16:45.461Z,100116.17
2018-03-16T20:19:16.613Z,100116.13
2018-03-16T20:21:47.576Z,100128.72
2018-03-16T20:24:18.683Z,100117.97
2018-03-16T20:26:51.163Z,100121.23
2018-03-16T20:29:24.572Z,100116.13
2018-03-16T20:31:55.870Z,100111.80
2018-03-16T20:34:34.102Z,100106.84
2018-03-16T20:37:05.599Z,100118.75
2018-03-16T20:39:39.031Z,100119.19
2018-03-16T20:42:13.357Z,100129.97
2018-03-16T20:44:44.753Z,100124.16
2018-03-16T20:47:16.345Z,100132.39
2018-03-16T20:49:47.838Z,100133.70
2018-03-16T20:52:18.845Z,100129.06
2018-03-16T20:54:50.265Z,100137.58
2018-03-16T20:57:21.824Z,100137.69
2018-03-16T21:00:00.622Z,100146.17
2018-03-16T21:02:44.721Z,100118.02
2018-03-16T21:05:15.806Z,100138.66
2018-03-16T21:07:47.067Z,100144.24
2018-03-16T21:10:19.104Z,100145.46
2018-03-16T21:12:52.074Z,100127.97
2018-03-16T21:15:24.314Z,100146.16
2018-03-16T21:17:56.157Z,100150.06
2018-03-16T21:20:28.014Z,100149.78
2018-03-16T21:22:58.751Z,100148.00
2018-03-16T21:25:29.793Z,100153.55
2018-03-16T21:28:02.856Z,100151.81
2018-03-16T21:30:34.543Z,100148.13
2018-03-16T21:33:08.997Z,100148.28
2018-03-16T21:35:40.993Z,100145.00
2018-03-16T21:38:12.475Z,100145.62
2018-03-16T21:40:44.847Z,100138.66
2018-03-16T21:43:16.668Z,100147.41
2018-03-16T21:45:48.327Z,100148.06
2018-03-16T21:48:19.519Z,100153.56
2018-03-16T21:50:53.581Z,100153.18
2018-03-16T21:53:28.930Z,100144.84
2018-03-16T21:56:01.665Z,100146.67
2018-03-16T21:58:33.781Z,100144.29
2018-03-16T22:01:05.054Z,100141.90
2018-03-16T22:03:37.288Z,100139.41
2018-03-16T22:06:09.520Z,100133.39
2018-03-16T22:08:47.659Z,100140.22
2018-03-16T22:11:20.057Z,100146.59
2018-03-16T22:13:50.834Z,100146.42
2018-03-16T22:16:21.679Z,100146.03
2018-03-16T22:18:52.730Z,100145.80
2018-03-16T22:21:26.177Z,100149.09
2018-03-16T22:23:58.285Z,100145.34
2018-03-16T22:26:31.257Z,100145.66
2018-03-16T22:29:03.194Z,100143.55
2018-03-16T22:31:40.080Z,100136.64
2018-03-16T22:34:12.437Z,100146.14
2018-03-16T22:36:45.289Z,100149.56
2018-03-16T22:39:16.110Z,100144.67
2018-03-16T22:41:48.683Z,100147.82
2018-03-16T22:44:21.434Z,100148.24
2018-03-16T22:46:52.985Z,100144.66
2018-03-16T22:49:24.919Z,100147.91
2018-03-16T22:51:56.308Z,100141.95
2018-03-16T22:54:29.490Z,100151.72
2018-03-16T22:57:01.235Z,100148.53
2018-03-16T22:59:33.157Z,100143.02
2018-03-16T23:02:08.000Z,100146.59
2018-03-16T23:04:39.727Z,100098.66
2018-03-16T23:07:11.836Z,100147.40
2018-03-16T23:09:42.998Z,100139.08
2018-03-16T23:12:14.577Z,100145.86
2018-03-16T23:14:45.646Z,100140.81
2018-03-16T23:17:16.890Z,100145.66
2018-03-16T23:19:48.362Z,100147.75
2018-03-16T23:22:20.085Z,100151.71
2018-03-16T23:24:51.684Z,100148.20
2018-03-16T23:27:23.793Z,100141.02
2018-03-16T23:29:55.056Z,100146.61
2018-03-16T23:32:27.319Z,100131.80
2018-03-16T23:34:58.682Z,100149.80
2018-03-16T23:37:31.397Z,100147.12
2018-03-16T23:40:02.775Z,100148.77
2018-03-16T23:42:34.106Z,100152.70
2018-03-16T23:45:09.122Z,100148.67
2018-03-16T23:47:42.644Z,100140.69
2018-03-16T23:50:14.759Z,100143.22
2018-03-16T23:52:46.942Z,100152.70
2018-03-16T23:55:18.612Z,100164.95
2018-03-16T23:57:50.929Z,100155.02
